createdAt,value
2022-11-07T00:00:20.846Z,98606.50
2022-11-07T00:02:47.280Z,98609.13
2022-11-07T00:05:13.848Z,98609.72
2022-11-07T00:07:40.254Z,98606.47
2022-11-07T00:10:07.015Z,98605.63
2022-11-07T00:12:36.450Z,98607.41
2022-11-07T00:15:04.993Z,98603.75
2022-11-07T00:17:31.570Z,98604.47
2022-11-07T00:19:58.225Z,98599.47
2022-11-07T00:22:24.638Z,98611.28
2022-11-07T00:24:51.066Z,98611.84
2022-11-07T00:27:17.692Z,98608.91
2022-11-07T00:29:44.149Z,98616.25
2022-11-07T00:32:10.565Z,98621.72
2022-11-07T00:34:36.955Z,98610.19
2022-11-07T00:37:03.424Z,98619.19
2022-11-07T00:39:29.914Z,98621.19
2022-11-07T00:41:56.372Z,98628.16
2022-11-07T00:44:22.850Z,98625.28
2022-11-07T00:46:49.375Z,98622.13
2022-11-07T00:49:15.769Z,98622.78
2022-11-07T00:51:42.583Z,98622.00
2022-11-07T00:54:09.022Z,98620.38
2022-11-07T00:56:35.522Z,98619.19
2022-11-07T00:59:01.929Z,98623.75
2022-11-07T01:01:31.996Z,98644.25
2022-11-07T01:04:17.643Z,98645.97
2022-11-07T01:06:46.119Z,98642.69
2022-11-07T01:09:16.653Z,98639.44
2022-11-07T01:11:43.947Z,98646.34
2022-11-07T01:14:11.778Z,98652.09
2022-11-07T01:16:38.884Z,98654.41
2022-11-07T01:19:06.247Z,98648.25
2022-11-07T01:21:32.695Z,98648.94
2022-11-07T01:24:00.226Z,98650.25
2022-11-07T01:26:27.025Z,98654.97
2022-11-07T01:28:53.444Z,98660.59
2022-11-07T01:31:20.104Z,98642.53
2022-11-07T01:33:46.920Z,98646.97
2022-11-07T01:36:16.369Z,98645.22
2022-11-07T01:38:46.010Z,98655.00
2022-11-07T01:41:21.145Z,98645.44
2022-11-07T01:44:08.976Z,98654.25
2022-11-07T01:46:41.106Z,98647.88
2022-11-07T01:49:32.348Z,98649.41
2022-11-07T01:52:04.199Z,98655.97
2022-11-07T01:54:35.587Z,98634.19
2022-11-07T01:57:09.287Z,98642.69
2022-11-07T01:59:37.543Z,98640.31
2022-11-07T02:02:04.546Z,98647.34
2022-11-07T02:04:31.854Z,98634.56
2022-11-07T02:07:34.062Z,98633.34
2022-11-07T02:10:01.551Z,98629.72
2022-11-07T02:12:29.028Z,98628.38
2022-11-07T02:14:56.583Z,98624.34
2022-11-07T02:17:23.339Z,98618.63
2022-11-07T02:19:55.939Z,98618.38
2022-11-07T02:22:28.368Z,98633.63
2022-11-07T02:25:00.096Z,98632.59
2022-11-07T02:27:31.222Z,98626.09
2022-11-07T02:30:02.682Z,98631.16
2022-11-07T02:32:29.329Z,98632.69
2022-11-07T02:35:00.176Z,98624.72
2022-11-07T02:37:37.405Z,98626.25
2022-11-07T02:40:08.052Z,98630.00
2022-11-07T02:42:44.151Z,98636.09
2022-11-07T02:45:17.414Z,98631.00
2022-11-07T02:47:43.839Z,98641.16
2022-11-07T02:50:12.641Z,98640.72
2022-11-07T02:52:39.060Z,98633.69
2022-11-07T02:55:06.774Z,98629.50
2022-11-07T02:57:33.490Z,98626.06
2022-11-07T02:59:59.944Z,98631.81
2022-11-07T03:02:26.574Z,98629.50
2022-11-07T03:04:53.289Z,98625.63
2022-11-07T03:07:19.803Z,98626.50
2022-11-07T03:09:46.257Z,98627.47
2022-11-07T03:12:12.708Z,98621.25
2022-11-07T03:14:39.235Z,98619.00
2022-11-07T03:17:05.740Z,98612.28
2022-11-07T03:19:32.174Z,98608.72
2022-11-07T03:21:58.565Z,98606.38
2022-11-07T03:24:24.993Z,98603.81
2022-11-07T03:26:51.489Z,98597.75
2022-11-07T03:29:17.903Z,98591.94
2022-11-07T03:31:44.294Z,98596.63
2022-11-07T03:34:10.785Z,98595.66
2022-11-07T03:36:37.195Z,98592.16
2022-11-07T03:39:03.718Z,98598.91
2022-11-07T03:41:30.111Z,98605.28
2022-11-07T03:43:56.538Z,98606.91
2022-11-07T03:46:22.956Z,98602.66
2022-11-07T03:48:49.374Z,98614.03
2022-11-07T03:51:15.773Z,98616.38
2022-11-07T03:53:42.216Z,98610.28
2022-11-07T03:56:10.695Z,98616.75
2022-11-07T03:58:37.744Z,98619.28
2022-11-07T04:01:05.096Z,98611.34
2022-11-07T04:03:32.491Z,98618.09
2022-11-07T04:05:59.355Z,98618.16
2022-11-07T04:08:25.850Z,98623.88
2022-11-07T04:10:52.324Z,98632.38
2022-11-07T04:13:37.376Z,98631.34
2022-11-07T04:16:22.732Z,98641.31
2022-11-07T04:18:49.213Z,98643.69
2022-11-07T04:21:15.603Z,98650.41
2022-11-07T04:23:42.024Z,98646.00
2022-11-07T04:26:26.756Z,98647.25
2022-11-07T04:28:53.179Z,98640.31
2022-11-07T04:31:19.615Z,98648.16
2022-11-07T04:33:46.059Z,98649.84
2022-11-07T04:36:12.518Z,98660.63
2022-11-07T04:38:38.973Z,98663.88
2022-11-07T04:41:05.847Z,98662.69
2022-11-07T04:43:32.409Z,98668.94
2022-11-07T04:45:58.868Z,98663.16
2022-11-07T04:48:25.262Z,98668.50
2022-11-07T04:50:51.768Z,98670.63
2022-11-07T04:53:18.887Z,98672.66
2022-11-07T04:55:45.306Z,98671.81
2022-11-07T04:58:11.700Z,98673.41
2022-11-07T05:00:38.192Z,98676.31
2022-11-07T05:03:04.703Z,98678.59
2022-11-07T05:05:31.564Z,98676.34
2022-11-07T05:07:57.955Z,98673.47
2022-11-07T05:10:29.094Z,98682.53
2022-11-07T05:12:56.461Z,98682.28
2022-11-07T05:15:23.591Z,98693.75
2022-11-07T05:17:50.052Z,98679.34
2022-11-07T05:20:36.879Z,98682.03
2022-11-07T05:23:18.477Z,98687.03
2022-11-07T05:25:48.188Z,98689.28
2022-11-07T05:28:35.175Z,98686.53
2022-11-07T05:31:06.246Z,98684.69
2022-11-07T05:33:32.862Z,98690.09
2022-11-07T05:36:18.794Z,98688.91
2022-11-07T05:38:47.737Z,98697.47
2022-11-07T05:41:15.367Z,98701.63
2022-11-07T05:43:42.087Z,98692.56
2022-11-07T05:46:09.159Z,98698.88
2022-11-07T05:48:36.547Z,98686.06
2022-11-07T05:51:04.445Z,98698.44
2022-11-07T05:53:31.280Z,98697.56
2022-11-07T05:55:57.871Z,98687.25
2022-11-07T05:58:24.323Z,98695.22
2022-11-07T06:00:50.743Z,98700.34
2022-11-07T06:03:20.181Z,98698.78
2022-11-07T06:05:47.595Z,98707.81
2022-11-07T06:08:14.568Z,98711.22
2022-11-07T06:10:42.428Z,98712.47
2022-11-07T06:13:13.136Z,98717.00
2022-11-07T06:15:40.890Z,98719.84
2022-11-07T06:18:12.439Z,98712.84
2022-11-07T06:20:39.218Z,98715.75
2022-11-07T06:23:06.637Z,98720.19
2022-11-07T06:25:33.640Z,98717.69
2022-11-07T06:28:01.834Z,98718.53
2022-11-07T06:30:28.920Z,98729.19
2022-11-07T06:32:55.420Z,98730.00
2022-11-07T06:35:22.428Z,98717.75
2022-11-07T06:37:48.867Z,98723.94
2022-11-07T06:40:15.327Z,98727.53
2022-11-07T06:42:41.732Z,98740.53
2022-11-07T06:45:08.686Z,98744.19
2022-11-07T06:47:35.087Z,98745.78
2022-11-07T06:50:01.514Z,98736.75
2022-11-07T06:52:28.424Z,98753.50
2022-11-07T06:54:54.941Z,98740.03
2022-11-07T06:57:21.413Z,98745.75
2022-11-07T06:59:51.773Z,98744.50
2022-11-07T07:02:43.819Z,98740.22
2022-11-07T07:05:05.554Z,98734.91
2022-11-07T07:07:31.992Z,98749.59
2022-11-07T07:09:58.378Z,98750.84
2022-11-07T07:12:26.418Z,98754.66
2022-11-07T07:14:52.814Z,98745.03
2022-11-07T07:17:19.287Z,98750.53
2022-11-07T07:19:45.728Z,98762.41
2022-11-07T07:22:14.943Z,98756.75
2022-11-07T07:24:41.322Z,98757.06
2022-11-07T07:27:07.716Z,98752.84
2022-11-07T07:29:34.135Z,98758.13
2022-11-07T07:32:00.545Z,98758.03
2022-11-07T07:34:26.958Z,98759.00
2022-11-07T07:36:54.198Z,98764.44
2022-11-07T07:39:20.599Z,98760.63
2022-11-07T07:41:49.280Z,98763.16
2022-11-07T07:44:15.662Z,98761.13
2022-11-07T07:46:42.143Z,98753.97
2022-11-07T07:49:09.092Z,98753.75
2022-11-07T07:51:35.942Z,98745.75
2022-11-07T07:54:02.340Z,98752.25
2022-11-07T07:56:28.798Z,98744.94
2022-11-07T07:58:55.829Z,98739.53
2022-11-07T08:01:22.373Z,98751.50
2022-11-07T08:04:01.167Z,98742.09
2022-11-07T08:06:28.064Z,98750.25
2022-11-07T08:08:54.496Z,98751.25
2022-11-07T08:11:20.917Z,98737.63
2022-11-07T08:13:47.307Z,98740.69
2022-11-07T08:16:14.747Z,98736.63
2022-11-07T08:18:41.153Z,98725.41
2022-11-07T08:21:08.595Z,98730.72
2022-11-07T08:23:35.840Z,98732.88
2022-11-07T08:26:04.751Z,98720.81
2022-11-07T08:28:33.839Z,98729.25
2022-11-07T08:31:03.176Z,98734.00
2022-11-07T08:33:30.810Z,98731.25
2022-11-07T08:36:00.480Z,98724.56
2022-11-07T08:38:28.519Z,98724.22
2022-11-07T08:40:56.101Z,98724.25
2022-11-07T08:43:22.578Z,98731.28
2022-11-07T08:45:50.422Z,98730.19
2022-11-07T08:48:17.457Z,98734.19
2022-11-07T08:50:44.203Z,98738.47
2022-11-07T08:53:11.704Z,98738.41
2022-11-07T08:55:38.245Z,98737.06
2022-11-07T08:58:07.240Z,98738.53
2022-11-07T09:00:35.627Z,98730.09
2022-11-07T09:05:53.225Z,98724.91
2022-11-07T09:08:19.691Z,98718.78
2022-11-07T09:10:46.166Z,98718.41
2022-11-07T09:13:15.160Z,98726.34
2022-11-07T09:15:46.162Z,98724.56
2022-11-07T09:18:15.943Z,98720.53
2022-11-07T09:20:42.363Z,98729.25
2022-11-07T09:23:09.173Z,98713.75
2022-11-07T09:25:35.580Z,98725.28
2022-11-07T09:28:03.248Z,98719.78
2022-11-07T09:30:29.671Z,98725.56
2022-11-07T09:32:56.810Z,98725.25
2022-11-07T09:35:23.320Z,98722.78
2022-11-07T09:37:51.055Z,98719.00
2022-11-07T09:40:51.216Z,98728.22
2022-11-07T09:43:55.190Z,98726.09
2022-11-07T09:46:28.287Z,98728.50
2022-11-07T09:49:01.303Z,98728.53
2022-11-07T09:51:40.743Z,98717.72
2022-11-07T09:54:29.097Z,98719.25
2022-11-07T09:56:58.535Z,98710.69
2022-11-07T09:59:30.336Z,98721.50
2022-11-07T10:01:56.808Z,98723.06
2022-11-07T10:04:25.716Z,98726.25
2022-11-07T10:07:04.043Z,98721.75
2022-11-07T10:09:47.984Z,98725.66
2022-11-07T10:12:17.095Z,98722.94
2022-11-07T10:15:08.718Z,98722.06
2022-11-07T10:17:49.440Z,98727.34
2022-11-07T10:20:41.112Z,98721.59
2022-11-07T10:23:43.045Z,98729.53
2022-11-07T10:26:10.467Z,98725.53
2022-11-07T10:28:52.933Z,98724.50
2022-11-07T10:31:19.798Z,98721.25
2022-11-07T10:33:56.809Z,98719.88
2022-11-07T10:36:30.779Z,98721.25
2022-11-07T10:38:58.015Z,98718.78
2022-11-07T10:41:27.418Z,98711.09
2022-11-07T10:43:59.108Z,98713.53
2022-11-07T10:46:38.477Z,98713.06
2022-11-07T10:49:36.239Z,98718.28
2022-11-07T10:52:19.448Z,98723.31
2022-11-07T10:54:46.976Z,98704.94
2022-11-07T10:57:22.236Z,98717.94
2022-11-07T10:59:51.756Z,98717.00
2022-11-07T11:02:43.921Z,98709.19
2022-11-07T11:05:40.558Z,98705.91
2022-11-07T11:08:19.357Z,98714.25
2022-11-07T11:10:47.282Z,98713.53
2022-11-07T11:13:33.167Z,98711.69
2022-11-07T11:16:21.188Z,98710.22
2022-11-07T11:18:53.233Z,98704.13
2022-11-07T11:21:20.279Z,98704.13
2022-11-07T11:23:47.734Z,98711.44
2022-11-07T11:26:30.591Z,98699.69
2022-11-07T11:29:02.297Z,98694.34
2022-11-07T11:31:35.029Z,98697.69
2022-11-07T11:34:36.569Z,98686.16
2022-11-07T11:37:15.942Z,98683.72
2022-11-07T11:40:03.916Z,98677.63
2022-11-07T11:42:39.453Z,98671.50
2022-11-07T11:45:16.717Z,98674.47
2022-11-07T11:47:53.833Z,98672.69
2022-11-07T11:50:31.754Z,98668.84
2022-11-07T11:52:59.457Z,98671.47
2022-11-07T11:55:34.231Z,98663.06
2022-11-07T11:58:34.931Z,98678.34
2022-11-07T12:01:18.346Z,98672.16
2022-11-07T12:04:22.744Z,98671.72
2022-11-07T12:06:57.600Z,98663.31
2022-11-07T12:09:23.912Z,98657.38
2022-11-07T12:12:09.705Z,98661.84
2022-11-07T12:14:57.686Z,98648.75
2022-11-07T12:17:38.006Z,98647.78
2022-11-07T12:20:19.999Z,98643.44
2022-11-07T12:22:53.914Z,98648.63
2022-11-07T12:25:27.655Z,98650.75
2022-11-07T12:28:06.409Z,98645.56
2022-11-07T12:30:35.765Z,98639.75
2022-11-07T12:33:28.068Z,98635.03
2022-11-07T12:35:57.172Z,98636.16
2022-11-07T12:38:38.682Z,98630.88
2022-11-07T12:41:34.619Z,98626.78
2022-11-07T12:44:04.813Z,98629.59
2022-11-07T12:46:52.923Z,98626.22
2022-11-07T12:49:40.856Z,98613.91
2022-11-07T12:52:42.807Z,98606.28
2022-11-07T12:55:42.015Z,98610.34
2022-11-07T12:58:20.325Z,98608.16
2022-11-07T13:00:47.850Z,98614.53
2022-11-07T13:03:32.944Z,98601.84
2022-11-07T13:06:15.344Z,98609.22
2022-11-07T13:08:56.327Z,98611.00
2022-11-07T13:11:41.071Z,98609.78
2022-11-07T13:14:26.643Z,98608.59
2022-11-07T13:17:08.386Z,98605.84
2022-11-07T13:19:37.879Z,98613.53
2022-11-07T13:22:07.575Z,98604.81
2022-11-07T13:24:38.726Z,98599.78
2022-11-07T13:27:20.702Z,98595.75
2022-11-07T13:29:47.131Z,98600.81
2022-11-07T13:32:15.517Z,98590.41
2022-11-07T13:34:47.960Z,98594.94
2022-11-07T13:37:22.470Z,98592.38
2022-11-07T13:39:51.460Z,98602.66
2022-11-07T13:42:19.229Z,98605.50
2022-11-07T13:44:53.326Z,98595.66
2022-11-07T13:47:26.243Z,98602.84
2022-11-07T13:49:57.988Z,98604.75
2022-11-07T13:52:52.410Z,98598.34
2022-11-07T13:55:23.502Z,98605.56
2022-11-07T13:57:57.949Z,98603.59
2022-11-07T14:00:24.916Z,98605.78
2022-11-07T14:02:57.720Z,98602.69
2022-11-07T14:05:27.250Z,98606.38
2022-11-07T14:08:03.127Z,98603.59
2022-11-07T14:10:33.848Z,98608.44
2022-11-07T14:13:22.203Z,98607.09
2022-11-07T14:15:53.916Z,98609.53
2022-11-07T14:18:23.077Z,98610.88
2022-11-07T14:20:55.350Z,98610.41
2022-11-07T14:23:26.160Z,98613.81
2022-11-07T14:26:04.700Z,98614.41
2022-11-07T14:28:36.751Z,98614.91
2022-11-07T14:31:06.766Z,98606.28
2022-11-07T14:33:33.920Z,98597.59
2022-11-07T14:36:05.762Z,98599.88
2022-11-07T14:38:32.328Z,98598.31
2022-11-07T14:41:01.844Z,98593.72
2022-11-07T14:43:29.347Z,98597.47
2022-11-07T14:46:17.388Z,98596.41
2022-11-07T14:48:44.980Z,98598.63
2022-11-07T14:51:17.723Z,98589.94
2022-11-07T14:54:05.912Z,98590.00
2022-11-07T14:56:35.739Z,98592.94
2022-11-07T14:59:02.472Z,98586.75
2022-11-07T15:01:32.454Z,98586.28
2022-11-07T15:04:36.396Z,98574.97
2022-11-07T15:07:18.004Z,98580.69
2022-11-07T15:09:44.445Z,98574.53
2022-11-07T15:12:21.902Z,98572.69
2022-11-07T15:15:06.770Z,98580.09
2022-11-07T15:17:40.224Z,98575.28
2022-11-07T15:20:07.347Z,98580.28
2022-11-07T15:22:39.020Z,98576.19
2022-11-07T15:25:25.089Z,98582.50
2022-11-07T15:27:51.550Z,98578.78
2022-11-07T15:30:34.431Z,98580.53
2022-11-07T15:33:00.892Z,98581.94
2022-11-07T15:35:43.427Z,98580.06
2022-11-07T15:38:21.073Z,98589.00
2022-11-07T15:40:48.627Z,98583.06
2022-11-07T15:43:15.281Z,98588.78
2022-11-07T15:45:42.653Z,98583.38
2022-11-07T15:48:19.594Z,98588.78
2022-11-07T15:50:47.773Z,98579.59
2022-11-07T15:53:23.197Z,98583.91
2022-11-07T15:55:55.045Z,98586.38
2022-11-07T15:58:24.138Z,98578.50
2022-11-07T16:00:51.960Z,98587.16
2022-11-07T16:03:20.889Z,98579.03
2022-11-07T16:05:49.917Z,98580.66
2022-11-07T16:08:19.033Z,98573.88
2022-11-07T16:10:51.164Z,98574.97
2022-11-07T16:13:17.596Z,98576.31
2022-11-07T16:15:48.504Z,98583.38
2022-11-07T16:18:17.577Z,98569.28
2022-11-07T16:20:45.001Z,98583.38
2022-11-07T16:23:11.477Z,98574.97
2022-11-07T16:25:40.826Z,98581.19
2022-11-07T16:28:34.816Z,98583.81
2022-11-07T16:31:02.204Z,98597.22
2022-11-07T16:33:29.057Z,98595.69
2022-11-07T16:35:59.852Z,98598.88
2022-11-07T16:38:31.336Z,98597.75
2022-11-07T16:41:00.502Z,98614.88
2022-11-07T16:43:26.885Z,98607.47
2022-11-07T16:45:55.961Z,98613.56
2022-11-07T16:48:26.607Z,98613.97
2022-11-07T16:50:54.281Z,98615.44
2022-11-07T16:53:21.717Z,98615.59
2022-11-07T16:55:53.606Z,98619.00
2022-11-07T16:58:30.332Z,98608.00
2022-11-07T17:00:59.288Z,98612.97
2022-11-07T17:03:26.475Z,98616.69
2022-11-07T17:05:58.692Z,98616.63
2022-11-07T17:08:29.571Z,98614.72
2022-11-07T17:10:55.992Z,98613.13
2022-11-07T17:13:23.125Z,98615.63
2022-11-07T17:15:50.065Z,98610.56
2022-11-07T17:18:22.025Z,98606.34
2022-11-07T17:20:51.312Z,98615.00
2022-11-07T17:23:18.644Z,98613.09
2022-11-07T17:25:50.560Z,98609.47
2022-11-07T17:28:17.581Z,98612.38
2022-11-07T17:30:44.527Z,98610.94
2022-11-07T17:33:10.944Z,98616.59
2022-11-07T17:35:37.968Z,98623.47
2022-11-07T17:38:05.444Z,98620.34
2022-11-07T17:40:33.642Z,98626.97
2022-11-07T17:43:00.473Z,98620.44
2022-11-07T17:45:27.364Z,98625.53
2022-11-07T17:47:53.820Z,98627.81
2022-11-07T17:50:22.295Z,98626.75
2022-11-07T17:52:48.759Z,98622.84
2022-11-07T17:55:15.323Z,98632.59
2022-11-07T17:57:43.376Z,98626.63
2022-11-07T18:00:30.091Z,98634.63
2022-11-07T18:02:56.654Z,98622.66
2022-11-07T18:05:26.503Z,98623.06
2022-11-07T18:07:56.663Z,98622.81
2022-11-07T18:10:23.828Z,98629.03
2022-11-07T18:12:50.288Z,98626.13
2022-11-07T18:15:16.703Z,98622.84
2022-11-07T18:17:43.124Z,98621.25
2022-11-07T18:20:10.342Z,98619.66
2022-11-07T18:22:37.260Z,98618.50
2022-11-07T18:25:08.289Z,98615.75
2022-11-07T18:27:35.494Z,98625.16
2022-11-07T18:30:03.023Z,98617.75
2022-11-07T18:32:35.546Z,98625.19
2022-11-07T18:35:04.287Z,98618.00
2022-11-07T18:37:30.677Z,98621.94
2022-11-07T18:39:57.087Z,98625.25
2022-11-07T18:42:23.486Z,98622.63
2022-11-07T18:44:49.889Z,98623.03
2022-11-07T18:47:16.295Z,98627.63
2022-11-07T18:49:42.720Z,98626.44
2022-11-07T18:52:09.113Z,98614.81
2022-11-07T18:54:35.581Z,98619.13
2022-11-07T18:57:02.023Z,98605.38
2022-11-07T18:59:28.467Z,98618.34
2022-11-07T19:01:55.007Z,98617.34
2022-11-07T19:04:21.469Z,98622.41
2022-11-07T19:06:57.167Z,98616.84
2022-11-07T19:09:29.914Z,98606.59
2022-11-07T19:11:58.017Z,98613.13
2022-11-07T19:14:25.889Z,98620.59
2022-11-07T19:16:52.856Z,98628.00
2022-11-07T19:19:19.320Z,98621.31
2022-11-07T19:21:45.774Z,98619.38
2022-11-07T19:24:13.130Z,98614.91
2022-11-07T19:26:39.795Z,98627.19
2022-11-07T19:29:09.241Z,98624.34
2022-11-07T19:31:36.924Z,98623.81
2022-11-07T19:34:03.685Z,98632.28
2022-11-07T19:36:30.916Z,98627.53
2022-11-07T19:38:57.595Z,98631.16
2022-11-07T19:41:24.142Z,98630.94
2022-11-07T19:43:50.548Z,98637.28
2022-11-07T19:46:22.485Z,98621.63
2022-11-07T19:48:49.912Z,98622.34
2022-11-07T19:51:22.124Z,98624.06
2022-11-07T19:53:58.024Z,98628.28
2022-11-07T19:56:26.521Z,98625.97
2022-11-07T19:58:54.367Z,98618.84
2022-11-07T20:01:26.680Z,98632.88
2022-11-07T20:03:54.295Z,98627.81
2022-11-07T20:06:27.439Z,98622.69
2022-11-07T20:08:53.884Z,98627.03
2022-11-07T20:11:22.183Z,98633.25
2022-11-07T20:13:48.679Z,98625.31
2022-11-07T20:16:15.687Z,98619.47
2022-11-07T20:18:42.425Z,98618.38
2022-11-07T20:21:13.172Z,98617.03
2022-11-07T20:23:40.990Z,98617.03
2022-11-07T20:26:14.138Z,98616.00
2022-11-07T20:28:40.648Z,98609.25
2022-11-07T20:31:09.053Z,98623.81
2022-11-07T20:33:35.558Z,98618.69
2022-11-07T20:36:05.987Z,98616.47
2022-11-07T20:38:33.462Z,98624.75
2022-11-07T20:41:01.353Z,98616.81
2022-11-07T20:43:27.867Z,98614.94
2022-11-07T20:45:54.311Z,98620.31
2022-11-07T20:48:21.269Z,98621.72
2022-11-07T20:50:48.521Z,98616.34
2022-11-07T20:53:16.074Z,98617.03
2022-11-07T20:55:43.382Z,98615.53
2022-11-07T20:58:10.753Z,98617.03
2022-11-07T21:00:39.136Z,98606.75
2022-11-07T21:03:06.061Z,98614.47
2022-11-07T21:05:32.491Z,98615.66
2022-11-07T21:07:58.944Z,98607.84
2022-11-07T21:10:25.370Z,98614.63
2022-11-07T21:12:51.802Z,98613.34
2022-11-07T21:15:18.236Z,98612.41
2022-11-07T21:17:44.678Z,98614.41
2022-11-07T21:20:11.370Z,98602.38
2022-11-07T21:22:37.942Z,98617.91
2022-11-07T21:25:08.045Z,98608.19
2022-11-07T21:27:37.661Z,98605.53
2022-11-07T21:30:06.129Z,98597.50
2022-11-07T21:32:33.268Z,98602.03
2022-11-07T21:34:59.727Z,98596.66
2022-11-07T21:37:26.181Z,98589.41
2022-11-07T21:39:52.616Z,98588.25
2022-11-07T21:42:19.089Z,98586.63
2022-11-07T21:44:45.590Z,98583.97
2022-11-07T21:47:12.041Z,98584.91
2022-11-07T21:49:39.545Z,98574.72
2022-11-07T21:52:05.964Z,98572.75
2022-11-07T21:54:32.356Z,98575.19
2022-11-07T21:57:00.236Z,98574.84
2022-11-07T21:59:26.896Z,98574.28
2022-11-07T22:01:55.077Z,98569.72
2022-11-07T22:04:21.602Z,98564.25
2022-11-07T22:06:48.030Z,98568.91
2022-11-07T22:09:16.962Z,98558.66
2022-11-07T22:11:44.120Z,98555.50
2022-11-07T22:14:14.694Z,98550.94
2022-11-07T22:16:41.809Z,98568.19
2022-11-07T22:19:12.248Z,98552.22
2022-11-07T22:21:40.043Z,98553.84
2022-11-07T22:24:06.799Z,98550.34
2022-11-07T22:26:33.212Z,98551.97
2022-11-07T22:28:59.663Z,98551.75
2022-11-07T22:31:30.198Z,98539.97
2022-11-07T22:33:58.466Z,98539.50
2022-11-07T22:36:25.033Z,98533.22
2022-11-07T22:38:51.676Z,98538.22
2022-11-07T22:41:23.631Z,98536.13
2022-11-07T22:43:50.546Z,98535.53
2022-11-07T22:46:19.464Z,98530.56
2022-11-07T22:48:47.168Z,98538.00
2022-11-07T22:51:16.431Z,98533.09
2022-11-07T22:53:42.865Z,98530.06
2022-11-07T22:56:15.720Z,98533.78
2022-11-07T22:58:42.565Z,98527.28
2022-11-07T23:01:18.320Z,98525.19
2022-11-07T23:03:45.539Z,98522.25
2022-11-07T23:06:12.169Z,98517.00
2022-11-07T23:08:39.137Z,98512.72
2022-11-07T23:11:43.482Z,98510.94
2022-11-07T23:14:00.427Z,98502.44
2022-11-07T23:16:32.679Z,98501.13
2022-11-07T23:19:01.080Z,98503.25
2022-11-07T23:21:27.848Z,98498.34
2022-11-07T23:23:55.678Z,98487.25
2022-11-07T23:26:22.724Z,98494.94
2022-11-07T23:28:49.922Z,98480.41
2022-11-07T23:31:18.068Z,98493.47
2022-11-07T23:33:44.951Z,98485.78
2022-11-07T23:36:16.531Z,98487.19
2022-11-07T23:38:44.008Z,98488.69
2022-11-07T23:41:14.602Z,98487.28
2022-11-07T23:43:42.786Z,98488.47
2022-11-07T23:46:32.023Z,98485.53
2022-11-07T23:49:17.291Z,98485.19
2022-11-07T23:51:45.208Z,98479.72
2022-11-07T23:54:29.950Z,98474.69
2022-11-07T23:56:56.428Z,98487.75
2022-11-07T23:59:41.676Z,98474.34
